createdAt,value
2017-11-24T00:01:00.879Z,933.88
2017-11-24T00:02:13.630Z,933.89
2017-11-24T00:03:25.950Z,933.89
2017-11-24T00:04:38.686Z,933.9
2017-11-24T00:05:51.421Z,933.88
2017-11-24T00:07:04.289Z,933.88
2017-11-24T00:08:17.052Z,933.91
2017-11-24T00:09:29.343Z,933.92
2017-11-24T00:10:42.078Z,933.91
2017-11-24T00:11:54.846Z,933.93
2017-11-24T00:13:07.645Z,933.93
2017-11-24T00:14:20.437Z,933.92
2017-11-24T00:15:32.762Z,933.95
2017-11-24T00:16:45.086Z,933.97
2017-11-24T00:17:57.408Z,933.96
2017-11-24T00:19:10.196Z,933.95
2017-11-24T00:20:22.515Z,934.03
2017-11-24T00:21:34.814Z,934.01
2017-11-24T00:22:47.587Z,934.04
2017-11-24T00:24:00.347Z,934.02
2017-11-24T00:25:12.228Z,934.05
2017-11-24T00:26:24.985Z,934.05
2017-11-24T00:27:37.729Z,934.05
2017-11-24T00:28:50.488Z,934.04
2017-11-24T00:30:03.247Z,934.06
2017-11-24T00:31:16.020Z,934.08
2017-11-24T00:32:28.790Z,934.12
2017-11-24T00:33:41.549Z,934.11
2017-11-24T00:34:54.296Z,934.1
2017-11-24T00:36:07.050Z,934.08
2017-11-24T00:37:19.800Z,934.1
2017-11-24T00:38:32.120Z,934.11
2017-11-24T00:39:44.923Z,934.08
2017-11-24T00:40:57.685Z,934.12
2017-11-24T00:42:10.428Z,934.12
2017-11-24T00:43:22.741Z,934.11
2017-11-24T00:44:35.516Z,934.14
2017-11-24T00:45:47.823Z,934.14
2017-11-24T00:47:00.577Z,934.1
2017-11-24T00:48:13.318Z,934.12
2017-11-24T00:49:26.142Z,934.16
2017-11-24T00:50:38.895Z,934.15
2017-11-24T00:51:51.625Z,934.17
2017-11-24T00:53:04.361Z,934.16
2017-11-24T00:54:17.116Z,934.19
2017-11-24T00:55:29.941Z,934.18
2017-11-24T00:56:42.709Z,934.21
2017-11-24T00:57:55.452Z,934.19
2017-11-24T00:59:07.745Z,934.17
2017-11-24T01:00:20.500Z,934.15
2017-11-24T01:01:33.365Z,934.13
2017-11-24T01:02:46.114Z,934.09
2017-11-24T01:03:58.845Z,934.1
2017-11-24T01:05:11.590Z,934.07
2017-11-24T01:06:23.889Z,934.09
2017-11-24T01:07:36.639Z,934.08
2017-11-24T01:08:48.938Z,934.06
2017-11-24T01:10:01.274Z,934.1
2017-11-24T01:11:13.581Z,934.07
2017-11-24T01:12:26.313Z,934.08
2017-11-24T01:13:38.628Z,934.08
2017-11-24T01:14:51.400Z,934.06
2017-11-24T01:16:04.146Z,934.07
2017-11-24T01:17:16.657Z,934.08
2017-11-24T01:18:29.424Z,934.08
2017-11-24T01:19:42.189Z,934.09
2017-11-24T01:20:54.934Z,934.07
2017-11-24T01:22:07.671Z,934.11
2017-11-24T01:23:20.424Z,934.08
2017-11-24T01:24:33.170Z,934.08
2017-11-24T01:25:45.943Z,934.09
2017-11-24T01:26:58.700Z,934.1
2017-11-24T01:28:11.016Z,934.08
2017-11-24T01:29:23.749Z,934.11
2017-11-24T01:30:36.497Z,934.07
2017-11-24T01:31:48.805Z,934.1
2017-11-24T01:33:01.590Z,934.08
2017-11-24T01:34:14.371Z,934.06
2017-11-24T01:35:27.133Z,934.04
2017-11-24T01:36:39.889Z,934.08
2017-11-24T01:37:52.610Z,934.02
2017-11-24T01:39:05.355Z,934
2017-11-24T01:40:18.116Z,934
2017-11-24T01:41:30.859Z,933.98
2017-11-24T01:42:43.611Z,933.95
2017-11-24T01:43:55.903Z,933.92
2017-11-24T01:45:08.198Z,933.96
2017-11-24T01:46:20.954Z,933.91
2017-11-24T01:47:33.712Z,933.91
2017-11-24T01:48:45.989Z,933.93
2017-11-24T01:49:58.719Z,933.89
2017-11-24T01:51:11.003Z,933.92
2017-11-24T01:52:23.755Z,933.88
2017-11-24T01:53:35.659Z,933.9
2017-11-24T01:54:48.415Z,933.87
2017-11-24T01:56:01.153Z,933.87
2017-11-24T01:57:13.889Z,933.84
2017-11-24T01:58:26.324Z,933.85
2017-11-24T01:59:39.058Z,933.86
2017-11-24T02:00:51.786Z,933.81
2017-11-24T02:02:04.573Z,933.89
2017-11-24T02:03:17.342Z,933.89
2017-11-24T02:04:29.653Z,933.91
2017-11-24T02:05:42.447Z,933.94
2017-11-24T02:06:54.743Z,933.87
2017-11-24T02:08:07.502Z,933.89
2017-11-24T02:09:20.258Z,933.9
2017-11-24T02:10:33.018Z,933.86
2017-11-24T02:11:45.329Z,933.9
2017-11-24T02:12:58.091Z,933.85
2017-11-24T02:14:10.872Z,933.89
2017-11-24T02:15:23.616Z,933.88
2017-11-24T02:16:36.389Z,933.86
2017-11-24T02:17:49.144Z,933.87
2017-11-24T02:19:01.930Z,933.87
2017-11-24T02:20:14.690Z,933.89
2017-11-24T02:21:27.460Z,933.87
2017-11-24T02:22:39.770Z,933.85
2017-11-24T02:23:52.057Z,933.86
2017-11-24T02:25:03.881Z,933.87
2017-11-24T02:26:16.166Z,933.85
2017-11-24T02:27:28.939Z,933.85
2017-11-24T02:28:41.236Z,933.82
2017-11-24T02:29:53.989Z,933.85
2017-11-24T02:31:06.735Z,933.77
2017-11-24T02:32:19.499Z,933.8
2017-11-24T02:33:31.800Z,933.82
2017-11-24T02:34:44.594Z,933.72
2017-11-24T02:35:57.368Z,933.75
2017-11-24T02:37:10.121Z,933.72
2017-11-24T02:38:22.871Z,933.74
2017-11-24T02:39:35.616Z,933.74
2017-11-24T02:40:48.395Z,933.68
2017-11-24T02:42:00.737Z,933.68
2017-11-24T02:43:13.489Z,933.66
2017-11-24T02:44:26.308Z,933.63
2017-11-24T02:45:39.094Z,933.63
2017-11-24T02:46:51.896Z,933.63
2017-11-24T02:48:04.204Z,933.64
2017-11-24T02:49:16.982Z,933.63
2017-11-24T02:50:29.771Z,933.59
2017-11-24T02:51:42.567Z,933.61
2017-11-24T02:52:55.367Z,933.64
2017-11-24T02:54:08.117Z,933.57
2017-11-24T02:55:19.966Z,933.61
2017-11-24T02:56:32.716Z,933.59
2017-11-24T02:57:45.452Z,933.57
2017-11-24T02:58:57.760Z,933.58
2017-11-24T03:00:10.509Z,933.58
2017-11-24T03:01:23.239Z,933.57
2017-11-24T03:02:35.997Z,933.54
2017-11-24T03:03:48.731Z,933.53
2017-11-24T03:05:01.474Z,933.53
2017-11-24T03:06:14.226Z,933.55
2017-11-24T03:07:26.975Z,933.52
2017-11-24T03:08:39.259Z,933.5
2017-11-24T03:09:51.543Z,933.5
2017-11-24T03:11:04.294Z,933.46
2017-11-24T03:12:17.046Z,933.5
2017-11-24T03:13:29.796Z,933.47
2017-11-24T03:14:42.109Z,933.47
2017-11-24T03:15:54.858Z,933.42
2017-11-24T03:17:07.591Z,933.43
2017-11-24T03:18:20.318Z,933.44
2017-11-24T03:19:33.054Z,933.4
2017-11-24T03:20:45.794Z,933.44
2017-11-24T03:21:58.542Z,933.42
2017-11-24T03:23:11.305Z,933.41
2017-11-24T03:24:24.035Z,933.42
2017-11-24T03:25:36.773Z,933.39
2017-11-24T03:26:49.527Z,933.41
2017-11-24T03:28:02.288Z,933.37
2017-11-24T03:29:14.127Z,933.36
2017-11-24T03:30:26.885Z,933.37
2017-11-24T03:31:39.642Z,933.35
2017-11-24T03:32:52.385Z,933.3
2017-11-24T03:34:05.135Z,933.27
2017-11-24T03:35:17.905Z,933.25
2017-11-24T03:36:30.679Z,933.25
2017-11-24T03:37:42.993Z,933.22
2017-11-24T03:38:55.767Z,933.22
2017-11-24T03:40:08.068Z,933.22
2017-11-24T03:41:20.830Z,933.19
2017-11-24T03:42:33.129Z,933.2
2017-11-24T03:43:45.441Z,933.18
2017-11-24T03:44:58.192Z,933.15
2017-11-24T03:46:10.989Z,933.13
2017-11-24T03:47:23.768Z,933.12
2017-11-24T03:48:36.095Z,933.15
2017-11-24T03:49:48.884Z,933.11
2017-11-24T03:51:01.680Z,933.13
2017-11-24T03:52:14.468Z,933.12
2017-11-24T03:53:26.800Z,933.12
2017-11-24T03:54:39.589Z,933.09
2017-11-24T03:55:51.922Z,933.09
2017-11-24T03:57:04.723Z,933.07
2017-11-24T03:58:17.059Z,933.05
2017-11-24T03:59:29.398Z,933.1
2017-11-24T04:00:42.178Z,933.07
2017-11-24T04:01:54.963Z,933.03
2017-11-24T04:03:07.757Z,933.03
2017-11-24T04:04:20.607Z,933.03
2017-11-24T04:05:32.920Z,932.99
2017-11-24T04:06:45.710Z,933.05
2017-11-24T04:07:58.460Z,933.02
2017-11-24T04:09:11.232Z,933.03
2017-11-24T04:10:23.997Z,932.96
2017-11-24T04:11:36.780Z,933.01
2017-11-24T04:12:49.113Z,932.94
2017-11-24T04:14:01.855Z,932.95
2017-11-24T04:15:14.600Z,932.95
2017-11-24T04:16:26.912Z,932.95
2017-11-24T04:17:39.701Z,932.93
2017-11-24T04:18:52.055Z,932.92
2017-11-24T04:20:04.844Z,932.92
2017-11-24T04:21:17.615Z,932.91
2017-11-24T04:22:30.376Z,932.92
2017-11-24T04:23:43.245Z,932.9
2017-11-24T04:24:56.028Z,932.89
2017-11-24T04:26:08.334Z,932.84
2017-11-24T04:27:21.099Z,932.83
2017-11-24T04:28:33.873Z,932.83
2017-11-24T04:29:46.659Z,932.8
2017-11-24T04:30:59.421Z,932.81
2017-11-24T04:32:12.200Z,932.82
2017-11-24T04:33:24.990Z,932.81
2017-11-24T04:34:37.329Z,932.78
2017-11-24T04:35:50.080Z,932.8
2017-11-24T04:37:02.871Z,932.78
2017-11-24T04:38:15.631Z,932.78
2017-11-24T04:39:28.387Z,932.78
2017-11-24T04:40:41.152Z,932.76
2017-11-24T04:41:53.924Z,932.77
2017-11-24T04:43:06.236Z,932.73
2017-11-24T04:44:19.014Z,932.72
2017-11-24T04:45:31.753Z,932.7
2017-11-24T04:46:44.529Z,932.71
2017-11-24T04:47:57.277Z,932.72
2017-11-24T04:49:09.566Z,932.72
2017-11-24T04:50:22.210Z,932.68
2017-11-24T04:51:34.875Z,932.72
2017-11-24T04:52:47.606Z,932.75
2017-11-24T04:54:00.306Z,932.78
2017-11-24T04:55:13.042Z,932.82
2017-11-24T04:56:25.237Z,932.79
2017-11-24T04:57:37.073Z,932.79
2017-11-24T04:58:49.782Z,932.85
2017-11-24T05:00:02.482Z,932.81
2017-11-24T05:01:15.253Z,932.83
2017-11-24T05:02:27.944Z,932.81
2017-11-24T05:03:40.654Z,932.78
2017-11-24T05:04:53.302Z,932.81
2017-11-24T05:06:05.557Z,932.8
2017-11-24T05:07:17.870Z,932.77
2017-11-24T05:08:30.545Z,932.81
2017-11-24T05:09:42.806Z,932.79
2017-11-24T05:10:55.493Z,932.78
2017-11-24T05:12:08.183Z,932.81
2017-11-24T05:13:20.910Z,932.84
2017-11-24T05:14:33.652Z,932.8
2017-11-24T05:15:46.400Z,932.82
2017-11-24T05:16:58.716Z,932.79
2017-11-24T05:18:11.510Z,932.78
2017-11-24T05:19:24.292Z,932.77
2017-11-24T05:20:37.029Z,932.77
2017-11-24T05:21:49.821Z,932.8
2017-11-24T05:23:02.259Z,932.8
2017-11-24T05:24:15.065Z,932.77
2017-11-24T05:25:27.877Z,932.8
2017-11-24T05:26:40.675Z,932.79
2017-11-24T05:27:53.473Z,932.79
2017-11-24T05:29:06.241Z,932.8
2017-11-24T05:30:19.033Z,932.78
2017-11-24T05:31:31.849Z,932.82
2017-11-24T05:32:44.691Z,932.82
2017-11-24T05:33:57.584Z,932.84
2017-11-24T05:35:09.887Z,932.79
2017-11-24T05:36:22.649Z,932.8
2017-11-24T05:37:34.962Z,932.81
2017-11-24T05:38:47.262Z,932.85
2017-11-24T05:40:00.045Z,932.85
2017-11-24T05:41:12.408Z,932.84
2017-11-24T05:42:25.195Z,932.84
2017-11-24T05:43:37.051Z,932.83
2017-11-24T05:44:49.912Z,932.8
2017-11-24T05:46:02.664Z,932.78
2017-11-24T05:47:15.430Z,932.81
2017-11-24T05:48:27.718Z,932.83
2017-11-24T05:49:40.494Z,932.82
2017-11-24T05:50:53.257Z,932.82
2017-11-24T05:52:05.547Z,932.85
2017-11-24T05:53:17.836Z,932.87
2017-11-24T05:54:30.601Z,932.86
2017-11-24T05:55:43.375Z,932.86
2017-11-24T05:56:56.129Z,932.85
2017-11-24T05:58:08.445Z,932.92
2017-11-24T05:59:21.172Z,932.95
2017-11-24T06:00:33.871Z,932.91
2017-11-24T06:01:46.151Z,932.9
2017-11-24T06:02:58.833Z,932.9
2017-11-24T06:04:11.532Z,932.89
2017-11-24T06:05:24.249Z,932.89
2017-11-24T06:06:36.959Z,932.89
2017-11-24T06:07:49.676Z,932.88
2017-11-24T06:09:02.421Z,932.9
2017-11-24T06:10:14.706Z,932.9
2017-11-24T06:11:27.474Z,932.93
2017-11-24T06:12:40.296Z,932.94
2017-11-24T06:13:52.995Z,932.95
2017-11-24T06:15:05.709Z,932.95
2017-11-24T06:16:18.398Z,932.95
2017-11-24T06:17:31.066Z,932.96
2017-11-24T06:18:43.790Z,933
2017-11-24T06:19:56.512Z,932.95
2017-11-24T06:21:09.232Z,932.94
2017-11-24T06:22:21.923Z,932.96
2017-11-24T06:23:34.679Z,932.92
2017-11-24T06:24:46.976Z,932.96
2017-11-24T06:25:59.689Z,932.97
2017-11-24T06:27:11.969Z,933
2017-11-24T06:28:24.675Z,933.04
2017-11-24T06:29:37.336Z,933.05
2017-11-24T06:30:50.001Z,933.06
2017-11-24T06:32:02.723Z,933.09
2017-11-24T06:33:15.425Z,933.05
2017-11-24T06:34:28.255Z,933
2017-11-24T06:35:40.963Z,933.02
2017-11-24T06:36:53.684Z,933.01
2017-11-24T06:38:05.914Z,933
2017-11-24T06:39:18.588Z,933
2017-11-24T06:40:31.230Z,933.02
2017-11-24T06:41:43.889Z,933.03
2017-11-24T06:42:56.627Z,933.03
2017-11-24T06:44:09.284Z,933.03
2017-11-24T06:45:21.945Z,933.02
2017-11-24T06:46:34.647Z,933
2017-11-24T06:47:46.863Z,933.04
2017-11-24T06:48:59.489Z,933.05
2017-11-24T06:50:12.161Z,933.02
2017-11-24T06:51:23.994Z,933.05
2017-11-24T06:52:35.761Z,933.03
2017-11-24T06:53:47.969Z,933.04
2017-11-24T06:55:00.603Z,933.06
2017-11-24T06:56:12.752Z,933.08
2017-11-24T06:57:25.425Z,933.08
2017-11-24T06:58:37.640Z,933.08
2017-11-24T06:59:50.316Z,933.12
2017-11-24T07:01:02.968Z,933.09
2017-11-24T07:02:15.618Z,933.09
2017-11-24T07:03:27.846Z,933.14
2017-11-24T07:04:39.623Z,933.14
2017-11-24T07:05:52.272Z,933.14
2017-11-24T07:07:05.078Z,933.17
2017-11-24T07:08:17.666Z,933.17
2017-11-24T07:09:30.303Z,933.17
2017-11-24T07:10:42.541Z,933.19
2017-11-24T07:11:55.212Z,933.2
2017-11-24T07:13:07.887Z,933.22
2017-11-24T07:14:20.589Z,933.23
2017-11-24T07:15:33.274Z,933.26
2017-11-24T07:16:45.506Z,933.25
2017-11-24T07:17:58.131Z,933.24
2017-11-24T07:19:10.769Z,933.21
2017-11-24T07:20:23.433Z,933.23
2017-11-24T07:21:36.074Z,933.22
2017-11-24T07:22:48.313Z,933.24
2017-11-24T07:24:01.005Z,933.26
2017-11-24T07:25:13.197Z,933.27
2017-11-24T07:26:25.815Z,933.22
2017-11-24T07:27:38.419Z,933.21
2017-11-24T07:28:51.096Z,933.22
2017-11-24T07:30:03.773Z,933.24
2017-11-24T07:31:16.439Z,933.26
2017-11-24T07:32:29.142Z,933.24
2017-11-24T07:33:41.316Z,933.25
2017-11-24T07:34:54.008Z,933.25
2017-11-24T07:36:06.201Z,933.24
2017-11-24T07:37:18.407Z,933.24
2017-11-24T07:38:31.056Z,933.23
2017-11-24T07:39:43.836Z,933.26
2017-11-24T07:40:56.020Z,933.22
2017-11-24T07:42:08.229Z,933.24
2017-11-24T07:43:20.431Z,933.24
2017-11-24T07:44:33.059Z,933.28
2017-11-24T07:45:45.894Z,933.31
2017-11-24T07:46:58.575Z,933.29
2017-11-24T07:48:11.211Z,933.31
2017-11-24T07:49:23.420Z,933.33
2017-11-24T07:50:36.055Z,933.3
2017-11-24T07:51:47.762Z,933.31
2017-11-24T07:52:59.933Z,933.32
2017-11-24T07:54:12.096Z,933.33
2017-11-24T07:55:24.771Z,933.35
2017-11-24T07:56:37.518Z,933.36
2017-11-24T07:57:49.728Z,933.34
2017-11-24T07:59:02.388Z,933.36
2017-11-24T08:00:15.044Z,933.37
2017-11-24T08:01:27.269Z,933.41
2017-11-24T08:02:39.564Z,933.41
2017-11-24T08:03:52.311Z,933.44
2017-11-24T08:05:04.482Z,933.45
2017-11-24T08:06:17.110Z,933.45
2017-11-24T08:07:29.333Z,933.49
2017-11-24T08:08:41.934Z,933.49
2017-11-24T08:09:54.620Z,933.48
2017-11-24T08:11:06.919Z,933.52
2017-11-24T08:12:19.596Z,933.6
2017-11-24T08:13:32.357Z,933.53
2017-11-24T08:14:45.073Z,933.57
2017-11-24T08:15:57.801Z,933.6
2017-11-24T08:17:10.069Z,933.59
2017-11-24T08:18:22.800Z,933.62
2017-11-24T08:19:35.522Z,933.68
2017-11-24T08:20:48.243Z,933.62
2017-11-24T08:22:00.979Z,933.68
2017-11-24T08:23:13.664Z,933.71
2017-11-24T08:24:26.413Z,933.69
2017-11-24T08:25:38.711Z,933.73
2017-11-24T08:26:51.455Z,933.75
2017-11-24T08:28:03.731Z,933.75
2017-11-24T08:29:16.012Z,933.78
2017-11-24T08:30:28.733Z,933.81
2017-11-24T08:31:40.998Z,933.76
2017-11-24T08:32:53.774Z,933.79
2017-11-24T08:34:06.515Z,933.81
2017-11-24T08:35:19.235Z,933.8
2017-11-24T08:36:31.494Z,933.82
2017-11-24T08:37:44.239Z,933.87
2017-11-24T08:38:56.961Z,933.85
2017-11-24T08:40:09.734Z,933.87
2017-11-24T08:41:22.496Z,933.88
2017-11-24T08:42:35.220Z,933.88
2017-11-24T08:43:47.532Z,933.91
2017-11-24T08:45:00.267Z,933.92
2017-11-24T08:46:13.016Z,933.91
2017-11-24T08:47:25.730Z,933.96
2017-11-24T08:48:38.449Z,933.98
2017-11-24T08:49:51.155Z,933.98
2017-11-24T08:51:03.439Z,934.04
2017-11-24T08:52:16.197Z,934.01
2017-11-24T08:53:28.980Z,934.05
2017-11-24T08:54:41.730Z,934.08
2017-11-24T08:55:54.582Z,934.07
2017-11-24T08:57:07.353Z,934.11
2017-11-24T08:58:19.671Z,934.1
2017-11-24T08:59:32.358Z,934.12
2017-11-24T09:00:44.634Z,934.12
2017-11-24T09:01:57.390Z,934.14
2017-11-24T09:03:09.690Z,934.18
2017-11-24T09:04:22.438Z,934.14
2017-11-24T09:05:35.212Z,934.16
2017-11-24T09:06:48.000Z,934.2
2017-11-24T09:08:00.726Z,934.19
2017-11-24T09:09:13.053Z,934.24
2017-11-24T09:10:24.921Z,934.2
2017-11-24T09:11:37.661Z,934.24
2017-11-24T09:12:49.997Z,934.23
2017-11-24T09:14:02.273Z,934.28
2017-11-24T09:15:14.567Z,934.27
2017-11-24T09:16:27.286Z,934.32
2017-11-24T09:17:40.088Z,934.32
2017-11-24T09:18:52.857Z,934.35
2017-11-24T09:20:05.606Z,934.36
2017-11-24T09:21:18.368Z,934.43
2017-11-24T09:22:31.122Z,934.42
2017-11-24T09:23:43.895Z,934.43
2017-11-24T09:24:56.599Z,934.43
2017-11-24T09:26:08.918Z,934.49
2017-11-24T09:27:21.248Z,934.5
2017-11-24T09:28:34.049Z,934.56
2017-11-24T09:29:46.840Z,934.59
2017-11-24T09:30:59.640Z,934.63
2017-11-24T09:32:11.891Z,934.58
2017-11-24T09:33:24.184Z,934.62
2017-11-24T09:34:36.939Z,934.64
2017-11-24T09:35:49.706Z,934.66
2017-11-24T09:37:02.028Z,934.63
2017-11-24T09:38:14.357Z,934.66
2017-11-24T09:39:27.138Z,934.68
2017-11-24T09:40:39.480Z,934.65
2017-11-24T09:41:52.266Z,934.7
2017-11-24T09:43:05.054Z,934.67
2017-11-24T09:44:17.403Z,934.69
2017-11-24T09:45:30.171Z,934.72
2017-11-24T09:46:42.490Z,934.74
2017-11-24T09:47:55.266Z,934.75
2017-11-24T09:49:08.049Z,934.77
2017-11-24T09:50:20.841Z,934.77
2017-11-24T09:51:33.184Z,934.74
2017-11-24T09:52:45.955Z,934.77
2017-11-24T09:53:58.727Z,934.71
2017-11-24T09:55:11.034Z,934.71
2017-11-24T09:56:23.437Z,934.78
2017-11-24T09:57:36.248Z,934.73
2017-11-24T09:58:48.569Z,934.78
2017-11-24T10:00:00.890Z,934.77
2017-11-24T10:01:13.714Z,934.78
2017-11-24T10:02:26.465Z,934.77
2017-11-24T10:03:39.193Z,934.8
2017-11-24T10:04:51.486Z,934.8
2017-11-24T10:06:04.252Z,934.8
2017-11-24T10:07:17.100Z,934.81
2017-11-24T10:08:29.829Z,934.79
2017-11-24T10:09:42.573Z,934.78
2017-11-24T10:10:55.316Z,934.87
2017-11-24T10:12:07.607Z,934.82
2017-11-24T10:13:20.325Z,934.82
2017-11-24T10:14:33.049Z,934.82
2017-11-24T10:15:45.816Z,934.82
2017-11-24T10:16:58.640Z,934.87
2017-11-24T10:18:11.369Z,934.85
2017-11-24T10:19:23.694Z,934.85
2017-11-24T10:20:36.455Z,934.85
2017-11-24T10:21:49.265Z,934.89
2017-11-24T10:23:02.043Z,934.9
2017-11-24T10:24:13.863Z,934.92
2017-11-24T10:25:26.646Z,934.91
2017-11-24T10:26:39.448Z,934.93
2017-11-24T10:27:52.169Z,934.9
2017-11-24T10:29:04.915Z,934.89
2017-11-24T10:30:17.204Z,934.93
2017-11-24T10:31:29.997Z,934.95
2017-11-24T10:32:42.287Z,934.96
2017-11-24T10:33:55.026Z,934.93
2017-11-24T10:35:07.818Z,934.93
2017-11-24T10:36:20.579Z,934.95
2017-11-24T10:37:32.886Z,934.95
2017-11-24T10:38:45.618Z,934.97
2017-11-24T10:39:58.372Z,934.97
2017-11-24T10:41:11.141Z,934.97
2017-11-24T10:42:23.496Z,935
2017-11-24T10:43:36.272Z,935.04
2017-11-24T10:44:48.128Z,935.04
2017-11-24T10:46:00.886Z,935.09
2017-11-24T10:47:13.616Z,935.13
2017-11-24T10:48:26.355Z,935.13
2017-11-24T10:49:39.098Z,935.17
2017-11-24T10:50:51.858Z,935.19
2017-11-24T10:52:04.168Z,935.18
2017-11-24T10:53:16.920Z,935.2
2017-11-24T10:54:29.188Z,935.25
2017-11-24T10:55:41.959Z,935.24
2017-11-24T10:56:54.759Z,935.26
2017-11-24T10:58:07.522Z,935.2
2017-11-24T10:59:19.780Z,935.24
2017-11-24T11:00:32.020Z,935.21
2017-11-24T11:01:44.359Z,935.21
2017-11-24T11:02:57.101Z,935.24
2017-11-24T11:04:09.770Z,935.2
2017-11-24T11:05:22.553Z,935.2
2017-11-24T11:06:34.803Z,935.19
2017-11-24T11:07:47.538Z,935.21
2017-11-24T11:08:59.839Z,935.24
2017-11-24T11:10:12.206Z,935.2
2017-11-24T11:11:24.515Z,935.22
2017-11-24T11:12:37.243Z,935.28
2017-11-24T11:13:50.006Z,935.25
2017-11-24T11:15:02.251Z,935.29
2017-11-24T11:16:15.030Z,935.28
2017-11-24T11:17:27.762Z,935.31
2017-11-24T11:18:40.532Z,935.3
2017-11-24T11:19:52.825Z,935.35
2017-11-24T11:21:05.108Z,935.35
2017-11-24T11:22:17.840Z,935.4
2017-11-24T11:23:30.596Z,935.39
2017-11-24T11:24:43.317Z,935.42
2017-11-24T11:25:55.101Z,935.44
2017-11-24T11:27:07.333Z,935.44
2017-11-24T11:28:19.565Z,935.46
2017-11-24T11:29:31.869Z,935.43
2017-11-24T11:30:44.616Z,935.48
2017-11-24T11:31:57.348Z,935.51
2017-11-24T11:33:09.615Z,935.49
2017-11-24T11:34:21.884Z,935.45
2017-11-24T11:35:34.127Z,935.5
2017-11-24T11:36:46.836Z,935.52
2017-11-24T11:37:59.599Z,935.55
2017-11-24T11:39:11.886Z,935.56
2017-11-24T11:40:24.616Z,935.58
2017-11-24T11:41:36.929Z,935.59
2017-11-24T11:42:49.626Z,935.65
2017-11-24T11:44:02.099Z,935.7
2017-11-24T11:45:14.406Z,935.68
2017-11-24T11:46:27.167Z,935.69
2017-11-24T11:47:39.913Z,935.69
2017-11-24T11:48:52.672Z,935.73
2017-11-24T11:50:05.112Z,935.75
2017-11-24T11:51:17.936Z,935.75
2017-11-24T11:52:30.678Z,935.75
2017-11-24T11:53:43.465Z,935.76
2017-11-24T11:54:56.234Z,935.77
2017-11-24T11:56:08.554Z,935.77
2017-11-24T11:57:20.411Z,935.79
2017-11-24T11:58:33.077Z,935.81
2017-11-24T11:59:44.892Z,935.82
2017-11-24T12:00:57.587Z,935.82
2017-11-24T12:02:10.289Z,935.81
2017-11-24T12:03:23.057Z,935.79
2017-11-24T12:04:35.748Z,935.82
2017-11-24T12:05:48.016Z,935.84
2017-11-24T12:07:00.743Z,935.82
2017-11-24T12:08:12.998Z,935.77
2017-11-24T12:09:25.704Z,935.78
2017-11-24T12:10:38.402Z,935.78
2017-11-24T12:11:50.680Z,935.79
2017-11-24T12:13:03.421Z,935.73
2017-11-24T12:14:16.131Z,935.77
2017-11-24T12:15:28.373Z,935.77
2017-11-24T12:16:41.121Z,935.73
2017-11-24T12:17:53.839Z,935.74
2017-11-24T12:19:06.579Z,935.7
2017-11-24T12:20:18.840Z,935.67
2017-11-24T12:21:31.559Z,935.66
2017-11-24T12:22:44.289Z,935.63
2017-11-24T12:23:56.987Z,935.62
2017-11-24T12:25:09.243Z,935.62
2017-11-24T12:26:22.004Z,935.66
2017-11-24T12:27:34.253Z,935.67
2017-11-24T12:28:46.025Z,935.67
2017-11-24T12:29:58.273Z,935.68
2017-11-24T12:31:10.577Z,935.68
2017-11-24T12:32:23.293Z,935.67
2017-11-24T12:33:34.636Z,935.63
2017-11-24T12:34:46.410Z,935.6
2017-11-24T12:35:59.132Z,935.67
2017-11-24T12:37:11.376Z,935.68
2017-11-24T12:38:23.161Z,935.68
2017-11-24T12:39:35.399Z,935.67
2017-11-24T12:40:48.097Z,935.69
2017-11-24T12:42:00.347Z,935.68
2017-11-24T12:43:13.053Z,935.7
2017-11-24T12:44:24.906Z,935.7
2017-11-24T12:45:37.622Z,935.7
2017-11-24T12:46:50.365Z,935.69
2017-11-24T12:48:02.683Z,935.72
2017-11-24T12:49:15.404Z,935.69
2017-11-24T12:50:27.222Z,935.67
2017-11-24T12:51:39.929Z,935.69
2017-11-24T12:52:52.620Z,935.67
2017-11-24T12:54:04.905Z,935.68
2017-11-24T12:55:17.626Z,935.71
2017-11-24T12:56:29.444Z,935.66
2017-11-24T12:57:42.159Z,935.66
2017-11-24T12:58:54.448Z,935.65
2017-11-24T13:00:07.153Z,935.6
2017-11-24T13:01:19.341Z,935.65
2017-11-24T13:02:31.572Z,935.63
2017-11-24T13:03:44.269Z,935.65
2017-11-24T13:04:56.521Z,935.64
2017-11-24T13:06:09.254Z,935.64
2017-11-24T13:07:21.986Z,935.63
2017-11-24T13:08:34.749Z,935.65
2017-11-24T13:09:47.109Z,935.61
2017-11-24T13:10:59.879Z,935.58
2017-11-24T13:12:12.230Z,935.6
2017-11-24T13:13:25.004Z,935.57
2017-11-24T13:14:37.322Z,935.57
2017-11-24T13:15:49.690Z,935.59
2017-11-24T13:17:02.516Z,935.56
2017-11-24T13:18:14.859Z,935.63
2017-11-24T13:19:26.744Z,935.64
2017-11-24T13:20:39.488Z,935.63
2017-11-24T13:21:51.831Z,935.67
2017-11-24T13:23:04.631Z,935.63
2017-11-24T13:24:17.416Z,935.61
2017-11-24T13:25:29.744Z,935.62
2017-11-24T13:26:42.549Z,935.61
2017-11-24T13:27:54.900Z,935.63
2017-11-24T13:29:07.684Z,935.6
2017-11-24T13:30:20.018Z,935.7
2017-11-24T13:31:32.346Z,935.64
2017-11-24T13:32:44.693Z,935.65
2017-11-24T13:33:57.466Z,935.61
2017-11-24T13:35:09.786Z,935.61
2017-11-24T13:36:22.109Z,935.61
2017-11-24T13:37:34.467Z,935.62
2017-11-24T13:38:47.266Z,935.59
2017-11-24T13:40:00.059Z,935.57
2017-11-24T13:41:12.850Z,935.54
2017-11-24T13:42:24.719Z,935.56
2017-11-24T13:43:37.500Z,935.54
2017-11-24T13:44:50.268Z,935.54
2017-11-24T13:46:03.056Z,935.57
2017-11-24T13:47:15.399Z,935.52
2017-11-24T13:48:28.200Z,935.53
2017-11-24T13:49:41.021Z,935.5
2017-11-24T13:50:54.005Z,935.52
2017-11-24T13:52:06.329Z,935.51
2017-11-24T13:53:19.119Z,935.52
2017-11-24T13:54:31.925Z,935.52
2017-11-24T13:55:44.732Z,935.54
2017-11-24T13:56:57.526Z,935.51
2017-11-24T13:58:10.308Z,935.49
2017-11-24T13:59:23.069Z,935.5
2017-11-24T14:00:35.364Z,935.49
2017-11-24T14:01:48.118Z,935.45
2017-11-24T14:03:00.878Z,935.43
2017-11-24T14:04:13.647Z,935.4
2017-11-24T14:05:25.958Z,935.37
2017-11-24T14:06:38.242Z,935.32
2017-11-24T14:07:51.013Z,935.31
2017-11-24T14:09:03.311Z,935.31
2017-11-24T14:10:16.057Z,935.28
2017-11-24T14:11:28.356Z,935.26
2017-11-24T14:12:41.105Z,935.28
2017-11-24T14:13:53.419Z,935.29
2017-11-24T14:15:06.194Z,935.29
2017-11-24T14:16:18.977Z,935.2
2017-11-24T14:17:31.747Z,935.22
2017-11-24T14:18:45.736Z,935.2
2017-11-24T14:20:04.663Z,935.2
2017-11-24T14:21:17.430Z,935.21
2017-11-24T14:22:30.234Z,935.18
2017-11-24T14:23:42.984Z,935.17
2017-11-24T14:24:55.734Z,935.16
2017-11-24T14:26:08.476Z,935.18
2017-11-24T14:27:21.222Z,935.16
2017-11-24T14:28:33.519Z,935.12
2017-11-24T14:29:46.294Z,935.14
2017-11-24T14:31:02.241Z,935.12
2017-11-24T14:32:15.003Z,935.07
2017-11-24T14:33:27.318Z,935.07
2017-11-24T14:34:39.618Z,934.95
2017-11-24T14:35:52.370Z,935.04
2017-11-24T14:37:04.697Z,935.03
2017-11-24T14:38:16.076Z,935.01
2017-11-24T14:39:28.857Z,935
2017-11-24T14:40:42.977Z,934.97
2017-11-24T14:41:55.725Z,934.94
2017-11-24T14:43:08.493Z,934.91
2017-11-24T14:44:21.257Z,934.97
2017-11-24T14:45:33.993Z,934.88
2017-11-24T14:46:46.737Z,934.91
2017-11-24T14:47:59.514Z,934.89
2017-11-24T14:49:11.811Z,934.93
2017-11-24T14:50:24.215Z,935
2017-11-24T14:51:36.957Z,934.92
2017-11-24T14:52:49.710Z,934.88
2017-11-24T14:54:02.507Z,934.86
2017-11-24T14:55:15.299Z,934.87
2017-11-24T14:56:28.088Z,934.86
2017-11-24T14:57:40.854Z,934.85
2017-11-24T14:58:53.150Z,934.81
2017-11-24T15:00:05.925Z,934.82
2017-11-24T15:01:18.232Z,934.78
2017-11-24T15:02:31.926Z,934.73
2017-11-24T15:03:44.228Z,934.73
2017-11-24T15:04:56.526Z,934.71
2017-11-24T15:06:08.830Z,934.73
2017-11-24T15:07:21.583Z,934.74
2017-11-24T15:08:33.865Z,934.69
2017-11-24T15:09:46.615Z,934.73